Victory Gardens, New Jersey
Current Conditions -  °F | °C
As of 2:15 AM on Thursday 23 Oct 2014 (Local Time) from KMMU Reporting Station
Overcast Overcast  
Wind Chill: 54°   Ceiling: 2000
Heat Index: 54°   Visibility: 10mi
Dew Point: 46°   Wind: 13mph
Humidity: 77%   Direction: 360°N
Pressure: 29.75"   Gusts: 23mph
Location:  40.9293°N, 74.5472°W
Report Text: KMMU 230615Z AUTO 36011G20KT 10SM BKN020 OVC026 12/08 A2975 RMK AO2
Loading
Personal Weather Stations






























Interactive Weather Map
Tropical Storm Tracking
New forecast layout! Learn more

10-Day Weather Forecast

Advertisements
Track Severe Weather on mobile